Time;durP1;ratioP1;P1;durP2;ratioP2;P2;SDS_P1;SDS_P2;PMS_P1;PMS_P2;Temp;Humidity;BMP_temperature;BMP_pressure;BME280_temperature;BME280_humidity;BME280_pressure;Samples;Min_cycle;Max_cycle;Signal;HPM_P1;HPM_P2
2021/05/02 00:01:18;;;;;;;18.57;6.87;;;;;;;16.99;75.78;98252.73;1801288;79;21154;-80
2021/05/02 00:03:47;;;;;;;18.37;6.95;;;;;;;16.97;75.15;98261.18;1740297;82;21218;-82
2021/05/02 00:06:16;;;;;;;14.63;6.65;;;;;;;16.94;75.53;98265.78;1753192;82;21168;-81
2021/05/02 00:08:44;;;;;;;19.23;7.33;;;;;;;16.91;75.33;98257.64;1752515;82;21160;-80
2021/05/02 00:11:12;;;;;;;14.33;6.83;;;;;;;16.86;75.85;98243.95;1749093;81;21146;-79
2021/05/02 00:13:41;;;;;;;14.20;7.08;;;;;;;16.80;75.70;98242.52;1767159;80;21178;-82
2021/05/02 00:16:09;;;;;;;13.72;6.58;;;;;;;16.75;75.65;98245.94;1774229;80;21161;-80
2021/05/02 00:18:37;;;;;;;15.68;6.40;;;;;;;16.72;75.63;98243.97;1770386;80;21154;-80
2021/05/02 00:21:11;;;;;;;12.30;5.90;;;;;;;16.66;75.68;98243.41;1755232;80;21155;-80
2021/05/02 00:23:40;;;;;;;18.20;6.78;;;;;;;16.62;75.59;98241.91;1781271;80;21598;-81
2021/05/02 00:26:10;;;;;;;17.20;7.05;;;;;;;16.59;75.37;98236.88;1754258;81;21184;-79
2021/05/02 00:28:45;;;;;;;14.75;7.33;;;;;;;16.55;76.77;98230.11;1777765;80;21157;-81
2021/05/02 00:31:14;;;;;;;12.35;6.17;;;;;;;16.54;76.54;98232.86;1787374;79;21206;-80
2021/05/02 00:33:43;;;;;;;18.40;6.80;;;;;;;16.52;76.57;98223.77;1741261;81;21185;-80
2021/05/02 00:36:12;;;;;;;15.05;5.80;;;;;;;16.53;76.81;98227.22;1749379;82;21705;-79
2021/05/02 00:38:41;;;;;;;10.82;6.42;;;;;;;16.53;75.64;98234.61;1779829;80;21141;-80
2021/05/02 00:41:20;;;;;;;13.13;6.70;;;;;;;16.45;76.00;98233.81;1750662;82;21175;-81
2021/05/02 00:44:05;;;;;;;14.80;6.45;;;;;;;16.42;76.84;98242.34;1768262;81;21139;-81
2021/05/02 00:46:44;;;;;;;15.50;6.10;;;;;;;16.38;76.96;98241.68;1740708;82;21161;-80
2021/05/02 00:49:28;;;;;;;13.88;6.90;;;;;;;16.33;77.58;98243.73;1781469;80;21178;-80
2021/05/02 00:52:00;;;;;;;21.30;7.65;;;;;;;16.30;77.45;98236.08;1754637;82;21189;-80
2021/05/02 00:54:38;;;;;;;16.90;7.08;;;;;;;16.17;78.81;98230.73;1748956;81;21664;-80
2021/05/02 00:57:23;;;;;;;13.88;7.33;;;;;;;16.12;77.25;98218.87;1767280;81;21169;-80
2021/05/02 01:00:06;;;;;;;17.02;6.37;;;;;;;16.07;77.16;98221.75;1795941;79;21182;-80
2021/05/02 01:02:35;;;;;;;12.82;6.70;;;;;;;15.96;78.36;98219.80;1746993;81;21190;-80
2021/05/02 01:05:08;;;;;;;16.40;6.70;;;;;;;15.87;77.59;98212.01;1745371;82;21190;-79
2021/05/02 01:07:43;;;;;;;16.07;7.42;;;;;;;15.81;78.32;98208.45;1746933;82;21165;-82
2021/05/02 01:10:14;;;;;;;15.40;7.53;;;;;;;15.74;79.85;98205.84;1753709;81;22323;-81
2021/05/02 01:12:54;;;;;;;16.17;7.12;;;;;;;15.65;81.19;98203.27;1746020;81;21142;-80
2021/05/02 01:15:31;;;;;;;16.17;6.83;;;;;;;15.63;78.74;98193.34;1758353;81;21173;-80
2021/05/02 01:18:02;;;;;;;12.85;6.60;;;;;;;15.64;79.82;98202.06;1741488;82;21180;-79
2021/05/02 01:20:33;;;;;;;19.95;6.28;;;;;;;15.73;80.57;98203.31;1765857;80;21173;-80
2021/05/02 01:23:27;;;;;;;19.52;6.00;;;;;;;15.80;80.36;98192.38;1802807;79;21344;-81
2021/05/02 01:25:57;;;;;;;12.37;5.67;;;;;;;15.89;81.14;98184.40;1780542;79;21619;-80
2021/05/02 01:28:28;;;;;;;17.80;6.33;;;;;;;15.96;80.41;98201.45;1787520;79;21167;-80
2021/05/02 01:30:57;;;;;;;12.93;5.90;;;;;;;16.06;79.12;98204.35;1793193;79;21191;-80
2021/05/02 01:33:24;;;;;;;15.43;5.83;;;;;;;16.16;79.10;98202.01;1795226;79;21654;-79
2021/05/02 01:35:52;;;;;;;10.63;4.83;;;;;;;16.22;78.57;98195.06;1789716;79;21171;-80
2021/05/02 01:38:22;;;;;;;12.95;5.15;;;;;;;16.26;78.75;98189.52;1796778;79;21170;-81
2021/05/02 01:40:53;;;;;;;11.10;5.28;;;;;;;16.32;79.42;98183.53;1802279;79;21610;-80
2021/05/02 01:43:21;;;;;;;12.43;5.80;;;;;;;16.35;78.53;98192.02;1788366;79;21135;-80
2021/05/02 01:45:48;;;;;;;15.35;6.25;;;;;;;16.38;78.29;98174.80;1802828;79;21169;-78
2021/05/02 01:48:18;;;;;;;18.75;6.28;;;;;;;16.31;79.26;98174.80;1805404;79;21231;-80
2021/05/02 01:51:02;;;;;;;11.55;5.90;;;;;;;16.31;78.08;98178.73;1796435;79;21178;-79
2021/05/02 01:53:31;;;;;;;15.53;6.42;;;;;;;16.27;78.55;98185.11;1793915;79;21215;-82
2021/05/02 01:56:01;;;;;;;16.97;6.35;;;;;;;16.29;78.56;98185.86;1803016;79;21167;-80
2021/05/02 01:58:32;;;;;;;14.23;5.85;;;;;;;16.31;79.45;98180.05;1796717;79;21625;-80
2021/05/02 02:01:05;;;;;;;13.22;6.42;;;;;;;16.29;78.64;98175.36;1750952;82;22101;-81
2021/05/02 02:03:33;;;;;;;10.40;6.10;;;;;;;16.27;80.05;98162.38;1781670;80;21781;-80
2021/05/02 02:06:01;;;;;;;12.82;6.22;;;;;;;16.28;78.19;98162.73;1763492;81;21182;-79
2021/05/02 02:08:29;;;;;;;12.73;5.75;;;;;;;16.27;78.54;98158.88;1790426;79;21632;-81
2021/05/02 02:10:57;;;;;;;15.30;6.08;;;;;;;16.28;79.63;98163.20;1802104;79;22481;-81
2021/05/02 02:13:24;;;;;;;12.78;5.62;;;;;;;16.29;79.88;98159.62;1793004;79;21597;-79
2021/05/02 02:15:52;;;;;;;17.67;5.62;;;;;;;16.30;78.99;98162.64;1790462;79;21777;-81
2021/05/02 02:18:19;;;;;;;14.50;5.55;;;;;;;16.29;78.99;98152.62;1797069;79;21296;-80
2021/05/02 02:20:52;;;;;;;14.70;5.50;;;;;;;16.32;78.59;98147.64;1731025;81;21221;-81
2021/05/02 02:23:30;;;;;;;10.80;5.75;;;;;;;16.32;79.90;98147.64;1750601;80;21178;-80
2021/05/02 02:26:20;;;;;;;13.80;5.37;;;;;;;16.35;78.17;98153.98;1750937;82;21157;-81
2021/05/02 02:28:50;;;;;;;12.33;5.60;;;;;;;16.38;78.48;98148.56;1770543;80;21167;-80
2021/05/02 02:31:18;;;;;;;13.48;5.45;;;;;;;16.42;78.74;98149.22;1768751;80;21173;-79
2021/05/02 02:33:45;;;;;;;12.60;5.15;;;;;;;16.45;78.70;98135.44;1771150;80;21139;-80
2021/05/02 02:36:14;;;;;;;13.38;5.05;;;;;;;16.46;79.66;98138.41;1766696;80;21169;-81
2021/05/02 02:38:44;;;;;;;9.10;4.97;;;;;;;16.45;79.91;98141.13;1745774;81;21652;-80
2021/05/02 02:41:17;;;;;;;11.90;5.55;;;;;;;16.46;79.20;98148.08;1762138;80;21171;-80
2021/05/02 02:43:55;;;;;;;13.32;5.78;;;;;;;16.48;79.10;98145.72;1741474;81;22058;-81
2021/05/02 02:46:23;;;;;;;9.48;5.20;;;;;;;16.50;78.92;98139.90;1753875;81;21141;-82
2021/05/02 02:48:58;;;;;;;12.58;5.08;;;;;;;16.50;78.95;98137.27;1760299;81;21978;-80
2021/05/02 02:51:28;;;;;;;15.10;6.17;;;;;;;16.55;78.58;98147.94;1778151;80;21182;-79
2021/05/02 02:53:57;;;;;;;15.58;5.78;;;;;;;16.54;78.56;98148.42;1775986;80;21185;-81
2021/05/02 02:56:28;;;;;;;12.93;5.35;;;;;;;16.53;78.87;98148.52;1765332;81;21209;-80
2021/05/02 02:59:03;;;;;;;12.90;5.85;;;;;;;16.52;78.44;98143.74;1766344;81;21165;-80
2021/05/02 03:01:31;;;;;;;15.90;5.50;;;;;;;16.52;78.47;98149.47;1799801;79;21154;-80
2021/05/02 03:03:59;;;;;;;14.45;6.25;;;;;;;16.49;78.22;98146.55;1788925;79;21195;-80
2021/05/02 03:06:28;;;;;;;11.65;6.28;;;;;;;16.46;78.41;98127.92;1782793;80;21181;-80
2021/05/02 03:08:57;;;;;;;13.55;6.25;;;;;;;16.46;78.17;98132.34;1802247;79;21163;-80
2021/05/02 03:11:26;;;;;;;13.65;6.12;;;;;;;16.42;78.66;98137.41;1789515;79;21166;-81
2021/05/02 03:13:54;;;;;;;15.48;6.10;;;;;;;16.37;78.99;98138.16;1806286;79;21166;-80
2021/05/02 03:16:28;;;;;;;15.40;5.95;;;;;;;16.34;79.62;98132.66;1782767;79;21115;-80
2021/05/02 03:19:18;;;;;;;15.40;5.65;;;;;;;16.30;78.63;98131.17;1759079;80;21142;-80
2021/05/02 03:22:18;;;;;;;12.28;5.83;;;;;;;16.29;78.71;98141.27;1743490;82;21193;-81
2021/05/02 03:24:49;;;;;;;16.07;6.03;;;;;;;16.29;79.06;98136.89;1746949;81;21160;-79
2021/05/02 03:27:26;;;;;;;11.48;5.83;;;;;;;16.32;79.30;98142.40;1723138;82;21775;-80
2021/05/02 03:29:59;;;;;;;14.98;5.60;;;;;;;16.33;80.50;98138.82;1753230;81;21138;-81
2021/05/02 03:32:31;;;;;;;13.68;5.83;;;;;;;16.34;80.01;98140.52;1733489;82;21601;-80
2021/05/02 03:35:00;;;;;;;15.93;6.00;;;;;;;16.35;78.89;98136.11;1762438;81;21170;-80
2021/05/02 03:37:32;;;;;;;10.30;5.70;;;;;;;16.35;79.68;98138.25;1716453;81;22048;-80
2021/05/02 03:39:59;;;;;;;17.52;6.10;;;;;;;16.32;79.70;98127.97;1743608;82;21701;-81
2021/05/02 03:42:27;;;;;;;14.15;5.75;;;;;;;16.33;79.75;98130.95;1759592;80;21192;-81
2021/05/02 03:44:54;;;;;;;13.13;5.37;;;;;;;16.35;79.22;98140.87;1763681;81;21200;-80
2021/05/02 03:47:22;;;;;;;18.60;6.37;;;;;;;16.40;79.28;98130.11;1743184;81;21183;-80
2021/05/02 03:49:49;;;;;;;16.35;6.80;;;;;;;16.43;79.60;98140.39;1761508;81;21206;-80
2021/05/02 03:52:17;;;;;;;18.42;6.53;;;;;;;16.41;80.33;98146.20;1749501;82;21134;-80
2021/05/02 03:54:44;;;;;;;14.55;6.15;;;;;;;16.39;79.01;98149.40;1753186;81;21196;-79
2021/05/02 03:57:12;;;;;;;12.98;6.15;;;;;;;16.32;78.93;98156.83;1761705;81;21144;-81
2021/05/02 03:59:40;;;;;;;14.35;6.83;;;;;;;16.33;79.01;98162.91;1787423;80;21989;-80
2021/05/02 04:02:08;;;;;;;14.55;6.20;;;;;;;16.31;78.97;98168.24;1760593;81;21184;-81
2021/05/02 04:04:36;;;;;;;17.37;6.60;;;;;;;16.27;77.87;98158.88;1795774;79;21625;-80
2021/05/02 04:07:12;;;;;;;16.23;5.78;;;;;;;16.20;79.49;98154.51;1788035;79;21170;-81
2021/05/02 04:09:42;;;;;;;22.10;6.37;;;;;;;16.17;79.01;98150.75;1750987;81;21590;-80
2021/05/02 04:12:11;;;;;;;14.93;5.90;;;;;;;16.15;80.23;98150.01;1761941;81;21172;-80
2021/05/02 04:14:40;;;;;;;13.58;5.87;;;;;;;16.15;79.75;98158.35;1766519;80;21205;-80
2021/05/02 04:17:12;;;;;;;15.18;6.05;;;;;;;16.16;79.54;98158.73;1762416;80;21611;-80
2021/05/02 04:19:45;;;;;;;15.95;6.10;;;;;;;16.17;79.30;98162.55;1776312;80;21134;-83
2021/05/02 04:22:17;;;;;;;13.90;5.65;;;;;;;16.21;78.85;98162.73;1793319;80;21150;-80
2021/05/02 04:24:48;;;;;;;12.60;6.75;;;;;;;16.24;79.05;98154.69;1754687;82;21754;-81
2021/05/02 04:27:16;;;;;;;13.30;5.45;;;;;;;16.30;79.01;98161.33;1803330;79;21186;-80
2021/05/02 04:29:43;;;;;;;17.75;5.45;;;;;;;16.38;78.81;98167.41;1732841;81;21184;-81
2021/05/02 04:32:11;;;;;;;23.67;6.00;;;;;;;16.44;79.47;98169.16;1758915;81;21177;-79
2021/05/02 04:34:38;;;;;;;20.30;5.92;;;;;;;16.55;79.50;98166.30;1742640;82;21170;-80
2021/05/02 04:37:06;;;;;;;18.25;5.58;;;;;;;16.65;79.40;98159.08;1807266;79;21173;-79
2021/05/02 04:39:34;;;;;;;13.10;5.30;;;;;;;16.75;78.71;98156.70;1797442;79;21126;-79
2021/05/02 04:42:02;;;;;;;20.70;6.65;;;;;;;16.81;78.58;98156.33;1793450;79;21126;-79
2021/05/02 04:44:29;;;;;;;16.57;6.12;;;;;;;16.93;78.54;98157.75;1815435;79;21168;-82
2021/05/02 04:46:57;;;;;;;14.15;6.30;;;;;;;17.02;78.12;98158.47;1762284;81;21641;-80
2021/05/02 04:49:26;;;;;;;15.38;6.10;;;;;;;17.08;77.71;98163.31;1761136;81;21169;-80
2021/05/02 04:51:53;;;;;;;14.75;6.40;;;;;;;17.14;77.80;98160.75;1762285;81;21197;-79
2021/05/02 04:54:21;;;;;;;14.55;5.33;;;;;;;17.26;77.56;98160.75;1756873;81;21225;-80
2021/05/02 04:56:49;;;;;;;14.95;6.20;;;;;;;17.37;77.14;98152.61;1759273;81;21197;-80
2021/05/02 04:59:16;;;;;;;15.18;5.85;;;;;;;17.44;76.86;98153.41;1794578;79;21184;-80
2021/05/02 05:01:44;;;;;;;14.25;6.30;;;;;;;17.50;76.36;98146.42;1796240;79;21177;-80
2021/05/02 05:04:13;;;;;;;14.30;6.17;;;;;;;17.56;76.14;98153.53;1752019;81;21188;-79
2021/05/02 05:06:41;;;;;;;20.02;6.50;;;;;;;17.62;76.13;98155.25;1772964;80;21195;-79
2021/05/02 05:09:08;;;;;;;15.65;6.12;;;;;;;17.67;76.66;98153.16;1795334;79;21144;-80
2021/05/02 05:11:37;;;;;;;14.20;6.30;;;;;;;17.75;76.38;98150.48;1799853;79;22359;-80
2021/05/02 05:14:05;;;;;;;17.12;6.33;;;;;;;17.82;75.94;98152.55;1790228;79;21162;-80
2021/05/02 05:16:32;;;;;;;19.37;6.17;;;;;;;17.86;75.81;98153.22;1774442;79;21625;-79
2021/05/02 05:19:00;;;;;;;13.62;5.97;;;;;;;17.89;76.35;98146.44;1797827;79;21635;-79
2021/05/02 05:21:28;;;;;;;16.48;5.72;;;;;;;17.97;76.74;98160.38;1794302;79;21642;-80
2021/05/02 05:23:56;;;;;;;19.42;7.03;;;;;;;18.04;76.26;98154.55;1793318;79;22405;-80
2021/05/02 05:26:23;;;;;;;18.20;6.50;;;;;;;18.13;75.94;98136.46;1760823;80;21193;-80
2021/05/02 05:28:50;;;;;;;19.23;6.12;;;;;;;18.22;75.82;98142.36;1755674;81;21145;-80
2021/05/02 05:31:18;;;;;;;12.33;5.95;;;;;;;18.30;75.64;98143.96;1789729;80;21157;-79
2021/05/02 05:33:45;;;;;;;13.15;5.70;;;;;;;18.37;75.11;98132.54;1787644;80;21181;-80
2021/05/02 05:36:13;;;;;;;15.38;5.90;;;;;;;18.47;75.09;98125.66;1786876;80;21727;-79
2021/05/02 05:38:40;;;;;;;16.80;6.47;;;;;;;18.58;75.02;98123.08;1790069;80;21173;-81
2021/05/02 05:41:08;;;;;;;17.40;6.35;;;;;;;18.68;74.83;98132.44;1772646;80;21173;-82
2021/05/02 05:43:35;;;;;;;16.05;6.42;;;;;;;18.74;73.31;98139.91;1785340;80;21162;-80
2021/05/02 05:46:03;;;;;;;16.23;6.25;;;;;;;18.72;72.79;98136.55;1792346;80;22500;-81
2021/05/02 05:48:32;;;;;;;11.03;5.53;;;;;;;18.83;73.01;98130.02;1801377;79;21161;-80
2021/05/02 05:50:59;;;;;;;21.95;7.35;;;;;;;18.93;72.69;98142.52;1804725;79;21551;-80
2021/05/02 05:53:27;;;;;;;16.32;5.83;;;;;;;19.00;72.45;98145.03;1794149;79;22181;-79
2021/05/02 05:55:56;;;;;;;18.87;6.70;;;;;;;19.06;72.22;98135.39;1745599;81;21669;-79
2021/05/02 05:58:24;;;;;;;20.52;6.25;;;;;;;19.19;71.92;98135.29;1763539;81;21175;-80
2021/05/02 06:00:51;;;;;;;17.73;5.97;;;;;;;19.26;71.07;98145.25;1745494;82;21154;-81
2021/05/02 06:03:19;;;;;;;17.48;6.08;;;;;;;19.38;71.10;98150.55;1767495;81;21637;-81
2021/05/02 06:05:46;;;;;;;15.58;5.50;;;;;;;19.49;70.57;98143.96;1716555;82;21642;-81
2021/05/02 06:08:13;;;;;;;15.32;6.33;;;;;;;19.58;70.13;98149.02;1810253;78;21155;-81
2021/05/02 06:10:42;;;;;;;15.83;5.35;;;;;;;19.61;68.50;98154.88;1809052;79;21164;-80
2021/05/02 06:13:09;;;;;;;12.65;5.78;;;;;;;19.74;69.50;98147.39;1774103;79;21174;-80
2021/05/02 06:18:18;;;;;;;13.75;4.92;;;;;;;20.02;68.73;98157.44;1794803;78;22549;-81
2021/05/02 06:20:45;;;;;;;16.02;5.65;;;;;;;20.13;68.69;98150.47;1815461;79;22430;-80
2021/05/02 06:23:12;;;;;;;17.50;5.08;;;;;;;20.21;66.45;98150.24;1802357;79;21766;-79
2021/05/02 06:25:40;;;;;;;14.45;4.83;;;;;;;20.31;66.38;98152.12;1813869;79;21286;-81
2021/05/02 06:28:07;;;;;;;13.70;5.95;;;;;;;20.26;67.01;98141.45;1814315;78;21157;-80
2021/05/02 06:30:34;;;;;;;12.95;5.47;;;;;;;20.39;66.63;98153.20;1784130;79;21159;-81
2021/05/02 06:33:02;;;;;;;16.65;6.05;;;;;;;20.48;66.88;98163.98;1801411;79;22219;-80
2021/05/02 06:35:29;;;;;;;16.50;4.90;;;;;;;20.53;66.77;98163.11;1808411;79;21622;-81
2021/05/02 06:37:57;;;;;;;18.23;5.80;;;;;;;20.58;66.43;98159.63;1791548;79;21170;-80
2021/05/02 06:40:24;;;;;;;16.20;6.40;;;;;;;20.61;66.08;98162.90;1813474;79;21591;-79
2021/05/02 06:42:52;;;;;;;20.60;6.78;;;;;;;20.66;65.77;98156.74;1799294;79;21112;-81
2021/05/02 06:45:19;;;;;;;18.55;7.97;;;;;;;20.72;65.98;98162.02;1813800;79;21166;-80
2021/05/02 06:47:46;;;;;;;22.82;9.28;;;;;;;20.76;65.37;98157.33;1791328;79;21137;-80
2021/05/02 06:50:14;;;;;;;23.98;10.95;;;;;;;20.81;64.79;98161.27;1804322;79;21606;-80
2021/05/02 06:52:41;;;;;;;22.30;10.50;;;;;;;20.93;64.87;98155.92;1811047;79;22228;-80
2021/05/02 06:55:09;;;;;;;23.47;9.73;;;;;;;20.87;64.54;98153.33;1794959;79;21301;-79
2021/05/02 06:57:37;;;;;;;20.92;9.95;;;;;;;20.98;63.52;98156.39;1789021;79;21208;-80
2021/05/02 07:00:06;;;;;;;26.48;11.12;;;;;;;21.01;63.47;98152.19;1815446;78;21291;-81
2021/05/02 07:02:33;;;;;;;27.20;11.83;;;;;;;21.18;63.43;98154.73;1792314;79;22454;-80
2021/05/02 07:05:01;;;;;;;23.83;12.23;;;;;;;21.28;62.96;98152.98;1800599;79;21294;-80
2021/05/02 07:07:28;;;;;;;22.87;11.90;;;;;;;21.47;63.44;98154.96;1794654;79;21156;-81
2021/05/02 07:09:56;;;;;;;25.40;11.22;;;;;;;21.57;63.28;98151.88;1815067;79;21153;-81
2021/05/02 07:12:24;;;;;;;24.40;11.35;;;;;;;21.76;63.05;98153.77;1804339;79;21687;-81
2021/05/02 07:14:51;;;;;;;27.98;11.57;;;;;;;21.90;62.94;98157.05;1801524;79;21122;-80
2021/05/02 07:17:20;;;;;;;23.95;10.28;;;;;;;21.93;61.95;98160.27;1777190;80;21860;-80
2021/05/02 07:19:49;;;;;;;22.50;10.08;;;;;;;22.02;61.26;98170.06;1696139;83;21180;-81
2021/05/02 07:22:18;;;;;;;24.70;10.28;;;;;;;22.04;61.19;98164.15;1706839;84;21177;-81
2021/05/02 07:24:50;;;;;;;22.62;7.65;;;;;;;22.14;60.48;98159.36;1764345;81;21169;-80
2021/05/02 07:27:18;;;;;;;16.55;7.20;;;;;;;22.23;60.07;98161.20;1740238;81;21139;-81
2021/05/02 07:29:46;;;;;;;18.02;6.35;;;;;;;22.37;58.22;98167.97;1747898;81;21185;-81
2021/05/02 07:32:14;;;;;;;14.87;6.58;;;;;;;22.52;57.94;98161.77;1760074;81;21184;-81
2021/05/02 07:34:41;;;;;;;16.00;7.22;;;;;;;22.67;58.26;98167.53;1718967;82;21122;-81
2021/05/02 07:37:11;;;;;;;16.35;7.00;;;;;;;22.75;56.21;98175.62;1709094;84;21188;-80
2021/05/02 07:39:41;;;;;;;12.45;5.80;;;;;;;22.73;56.68;98169.63;1734231;82;21129;-81
2021/05/02 07:42:08;;;;;;;23.92;7.10;;;;;;;22.80;56.76;98175.56;1738252;82;22053;-80
2021/05/02 07:44:36;;;;;;;17.20;6.40;;;;;;;22.88;56.44;98179.31;1724881;82;21176;-81
2021/05/02 07:47:04;;;;;;;12.50;6.50;;;;;;;22.94;56.87;98178.30;1756978;81;21137;-81
2021/05/02 07:49:32;;;;;;;17.65;6.58;;;;;;;23.00;56.29;98183.03;1757908;81;21171;-80
2021/05/02 07:51:59;;;;;;;20.45;5.87;;;;;;;22.95;55.15;98189.23;1743139;81;21164;-81
2021/05/02 07:54:28;;;;;;;13.93;5.78;;;;;;;23.10;54.55;98188.84;1759632;81;21624;-80
2021/05/02 07:56:56;;;;;;;14.58;6.20;;;;;;;23.21;55.13;98197.48;1745545;81;21655;-82
2021/05/02 07:59:23;;;;;;;15.15;6.17;;;;;;;23.16;54.42;98212.16;1759055;81;21141;-81
2021/05/02 08:01:51;;;;;;;16.52;6.33;;;;;;;23.00;54.84;98208.22;1744984;81;21644;-80
2021/05/02 08:04:18;;;;;;;19.30;6.20;;;;;;;23.01;55.33;98211.70;1756598;81;22470;-81
2021/05/02 08:06:46;;;;;;;11.53;5.40;;;;;;;22.96;55.55;98215.23;1733747;81;21200;-80
2021/05/02 08:09:13;;;;;;;13.83;5.00;;;;;;;22.99;55.50;98209.17;1757004;81;21192;-80
2021/05/02 08:11:40;;;;;;;16.70;4.55;;;;;;;22.96;55.56;98216.09;1749132;81;21198;-81
2021/05/02 08:14:07;;;;;;;12.80;4.92;;;;;;;23.11;55.19;98207.75;1739779;81;21165;-80
2021/05/02 08:16:35;;;;;;;15.45;4.80;;;;;;;23.18;55.38;98207.06;1737392;80;21220;-81
2021/05/02 08:19:03;;;;;;;18.75;5.53;;;;;;;23.29;55.36;98195.95;1788724;79;21195;-81
2021/05/02 08:21:30;;;;;;;16.75;4.50;;;;;;;23.43;55.38;98202.14;1774154;79;21168;-81
2021/05/02 08:23:57;;;;;;;12.47;4.85;;;;;;;23.53;54.08;98204.78;1804139;79;21157;-81
2021/05/02 08:26:25;;;;;;;16.50;4.62;;;;;;;23.70;54.56;98189.47;1745456;82;21451;-81
2021/05/02 08:28:53;;;;;;;10.60;4.05;;;;;;;23.84;54.74;98197.98;1744744;81;21186;-81
2021/05/02 08:31:20;;;;;;;9.00;4.00;;;;;;;23.91;54.36;98197.23;1770138;81;21164;-81
2021/05/02 08:33:47;;;;;;;11.35;3.95;;;;;;;23.99;52.79;98196.05;1763395;81;22045;-81
2021/05/02 08:36:15;;;;;;;12.63;4.03;;;;;;;24.05;53.35;98198.58;1738516;81;21176;-81
2021/05/02 08:38:43;;;;;;;10.25;4.00;;;;;;;24.20;53.01;98200.28;1766154;81;21658;-82
2021/05/02 08:41:10;;;;;;;18.40;3.45;;;;;;;24.28;53.61;98194.24;1755139;81;21168;-80
2021/05/02 08:43:37;;;;;;;9.53;3.30;;;;;;;24.26;50.08;98191.73;1729406;81;21595;-81
2021/05/02 08:46:05;;;;;;;13.32;3.10;;;;;;;24.24;49.74;98191.04;1738088;81;21186;-82
2021/05/02 08:48:33;;;;;;;9.05;2.80;;;;;;;24.21;47.17;98193.98;1758791;81;21199;-82
2021/05/02 08:51:00;;;;;;;16.32;3.30;;;;;;;24.19;48.13;98189.30;1753651;81;21149;-80
2021/05/02 08:53:27;;;;;;;9.70;2.72;;;;;;;24.27;49.29;98189.40;1798330;79;21143;-81
2021/05/02 08:55:56;;;;;;;14.53;2.75;;;;;;;24.20;48.94;98187.01;1797343;79;22325;-80
2021/05/02 08:58:25;;;;;;;16.25;2.27;;;;;;;24.15;45.03;98199.88;1795642;79;21170;-80
2021/05/02 09:00:59;;;;;;;16.77;2.40;;;;;;;24.19;43.87;98201.25;1815597;79;21272;-83
2021/05/02 09:03:45;;;;;;;18.52;3.02;;;;;;;24.16;43.82;98206.38;1810988;79;21183;-82
2021/05/02 09:06:23;;;;;;;13.05;2.77;;;;;;;24.22;46.11;98204.45;1813415;79;21508;-81
2021/05/02 09:09:00;;;;;;;13.58;2.83;;;;;;;24.17;46.35;98212.05;1810750;78;21129;-82
2021/05/02 09:11:37;;;;;;;11.65;3.60;;;;;;;24.22;46.73;98199.65;1805597;78;21159;-82
2021/05/02 09:14:21;;;;;;;9.40;2.72;;;;;;;24.21;46.76;98209.44;1800422;79;21115;-82
2021/05/02 09:16:58;;;;;;;16.07;2.67;;;;;;;24.22;46.74;98220.89;1778248;78;21198;-83
2021/05/02 09:19:32;;;;;;;13.65;2.80;;;;;;;24.02;46.10;98205.03;1780212;80;21148;-81
2021/05/02 09:22:14;;;;;;;12.18;2.60;;;;;;;24.06;46.86;98208.73;1762616;81;21172;-81
2021/05/02 09:24:42;;;;;;;14.83;2.85;;;;;;;24.10;46.86;98210.12;1759395;81;21141;-83
2021/05/02 09:27:15;;;;;;;14.70;2.95;;;;;;;24.11;46.39;98209.12;1765003;80;21200;-82
2021/05/02 09:29:46;;;;;;;6.60;2.17;;;;;;;24.17;46.47;98200.56;1809454;79;21283;-82
2021/05/02 09:32:15;;;;;;;9.95;2.98;;;;;;;24.33;45.92;98194.15;1810727;79;21162;-83
2021/05/02 09:34:51;;;;;;;12.47;2.83;;;;;;;24.42;44.97;98190.59;1758956;80;21456;-81
2021/05/02 09:37:21;;;;;;;13.80;3.33;;;;;;;24.57;44.17;98177.68;1764947;80;21189;-81
2021/05/02 09:39:56;;;;;;;7.62;2.62;;;;;;;24.71;44.33;98184.30;1765394;80;21141;-81
2021/05/02 09:42:38;;;;;;;13.45;2.50;;;;;;;24.87;44.42;98179.64;1736932;81;21168;-82
2021/05/02 09:45:08;;;;;;;12.18;2.58;;;;;;;24.99;44.10;98179.75;1759715;81;21157;-82
2021/05/02 09:47:42;;;;;;;10.53;2.58;;;;;;;25.08;43.12;98169.19;1771874;80;21160;-81
2021/05/02 09:50:16;;;;;;;16.52;2.98;;;;;;;25.16;42.86;98163.93;1793930;80;21149;-83
2021/05/02 09:53:06;;;;;;;13.93;2.65;;;;;;;25.27;42.79;98161.06;1795030;80;21279;-84
2021/05/02 09:55:45;;;;;;;12.95;2.22;;;;;;;25.44;41.18;98161.18;1793253;80;21308;-83
2021/05/02 09:58:22;;;;;;;10.58;2.65;;;;;;;25.50;40.92;98166.70;1738581;81;21181;-82
2021/05/02 10:00:56;;;;;;;10.65;1.92;;;;;;;25.57;42.20;98166.93;1764822;80;21609;-81
2021/05/02 10:03:26;;;;;;;12.43;2.70;;;;;;;25.65;41.71;98161.66;1746690;81;21137;-80
2021/05/02 10:06:01;;;;;;;14.87;2.55;;;;;;;25.76;42.45;98161.37;1761419;81;21640;-80
2021/05/02 10:08:32;;;;;;;13.80;2.85;;;;;;;25.87;41.01;98152.30;1793529;80;21225;-82
2021/05/02 10:11:06;;;;;;;14.83;2.75;;;;;;;25.92;39.84;98156.66;1768650;80;21163;-82
2021/05/02 10:13:34;;;;;;;19.12;2.80;;;;;;;25.98;40.22;98149.39;1784557;79;21286;-82
2021/05/02 10:16:04;;;;;;;19.23;3.30;;;;;;;26.22;39.63;98131.81;1798294;79;21963;-83
2021/05/02 10:18:33;;;;;;;18.17;2.70;;;;;;;26.32;38.03;98148.52;1734152;81;21333;-82
2021/05/02 10:21:01;;;;;;;18.73;2.77;;;;;;;26.31;38.61;98157.50;1720207;82;21636;-81
2021/05/02 10:23:30;;;;;;;12.50;2.60;;;;;;;26.56;39.45;98147.75;1773980;79;21167;-83
2021/05/02 10:25:57;;;;;;;13.78;2.95;;;;;;;26.73;38.93;98162.47;1738911;82;21686;-84
2021/05/02 10:28:32;;;;;;;13.83;2.55;;;;;;;26.72;38.92;98150.12;1731075;82;21154;-83
2021/05/02 10:31:06;;;;;;;11.33;3.05;;;;;;;26.78;38.79;98152.98;1745019;81;21292;-82
2021/05/02 10:33:43;;;;;;;19.40;3.25;;;;;;;26.59;38.13;98146.61;1790613;79;21154;-82
2021/05/02 10:36:16;;;;;;;13.88;2.62;;;;;;;26.39;38.79;98142.86;1771160;79;22346;-81
2021/05/02 10:39:00;;;;;;;15.65;2.52;;;;;;;26.56;38.95;98149.55;1813779;79;22935;-82
2021/05/02 10:41:39;;;;;;;10.88;2.40;;;;;;;26.51;38.65;98142.56;1817468;78;21279;-83
2021/05/02 10:44:17;;;;;;;12.70;2.65;;;;;;;26.39;38.61;98138.86;1822626;78;21271;-80
2021/05/02 10:46:49;;;;;;;13.35;2.25;;;;;;;26.21;39.39;98153.31;1797381;78;21147;-83
2021/05/02 10:49:31;;;;;;;16.97;2.75;;;;;;;26.09;39.25;98156.75;1823013;78;21848;-82
2021/05/02 10:52:29;;;;;;;18.07;3.20;;;;;;;25.95;39.37;98159.02;1798441;78;21997;-82
2021/05/02 10:55:13;;;;;;;14.43;2.83;;;;;;;25.96;39.44;98155.38;1822017;78;21244;-82
2021/05/02 10:57:41;;;;;;;10.25;2.72;;;;;;;25.82;39.59;98157.24;1798186;78;21267;-82
2021/05/02 11:00:13;;;;;;;11.22;2.25;;;;;;;25.90;40.31;98170.63;1814474;78;21275;-81
2021/05/02 11:02:48;;;;;;;17.80;3.83;;;;;;;25.80;39.90;98177.39;1827398;78;21154;-82
2021/05/02 11:05:18;;;;;;;18.00;2.90;;;;;;;25.59;40.01;98192.89;1798817;78;21130;-83
2021/05/02 11:07:48;;;;;;;10.80;2.40;;;;;;;25.66;40.25;98183.27;1823811;78;21162;-83
2021/05/02 11:10:19;;;;;;;17.15;2.67;;;;;;;25.65;40.51;98174.96;1814478;78;21244;-82
2021/05/02 11:12:46;;;;;;;24.15;3.02;;;;;;;25.44;40.31;98179.30;1801228;78;21155;-83
2021/05/02 11:15:32;;;;;;;17.12;3.22;;;;;;;25.56;40.50;98171.39;1826666;78;21179;-82
2021/05/02 11:17:59;;;;;;;18.45;3.17;;;;;;;25.39;40.85;98170.47;1807376;78;21696;-82
2021/05/02 11:20:49;;;;;;;18.50;2.72;;;;;;;25.45;40.58;98174.33;1808468;78;21132;-83
2021/05/02 11:23:18;;;;;;;14.87;2.62;;;;;;;25.47;41.06;98171.52;1806773;78;21247;-83
2021/05/02 11:25:58;;;;;;;16.97;3.27;;;;;;;25.44;40.96;98169.98;1817916;78;21161;-83
2021/05/02 11:28:44;;;;;;;22.35;3.50;;;;;;;25.51;40.92;98176.38;1815029;78;21181;-83
2021/05/02 11:31:05;;;;;;;11.93;3.27;;;;;;;25.50;40.67;98169.87;1798229;78;21248;-84
2021/05/02 11:33:32;;;;;;;14.93;3.83;;;;;;;25.83;40.35;98170.91;1811679;78;21291;-83
2021/05/02 11:36:00;;;;;;;17.37;2.65;;;;;;;25.85;40.21;98169.42;1825771;78;21138;-83
2021/05/02 11:38:38;;;;;;;20.77;3.35;;;;;;;26.16;38.20;98167.95;1784710;78;21271;-84
2021/05/02 11:41:08;;;;;;;12.70;2.77;;;;;;;26.18;38.01;98165.09;1776063;80;21169;-83
2021/05/02 11:43:38;;;;;;;17.80;3.02;;;;;;;26.41;38.58;98154.70;1771317;80;21167;-83